createdAt,value
2022-08-09T00:02:28.612Z,88.06
2022-08-09T00:05:03.337Z,88.30
2022-08-09T00:07:44.734Z,88.40
2022-08-09T00:10:21.196Z,88.62
2022-08-09T00:12:52.841Z,88.73
2022-08-09T00:15:26.663Z,88.67
2022-08-09T00:18:05.840Z,88.62
2022-08-09T00:20:37.759Z,88.73
2022-08-09T00:23:55.966Z,88.78
2022-08-09T00:25:56.551Z,88.80
2022-08-09T00:28:27.163Z,88.71
2022-08-09T00:30:54.201Z,88.81
2022-08-09T00:33:20.973Z,88.74
2022-08-09T00:36:07.871Z,88.69
2022-08-09T00:38:35.432Z,88.71
2022-08-09T00:41:05.396Z,88.80
2022-08-09T00:44:14.737Z,88.78
2022-08-09T00:46:28.433Z,88.81
2022-08-09T00:49:11.063Z,88.95
2022-08-09T00:51:42.663Z,88.96
2022-08-09T00:54:22.981Z,88.84
2022-08-09T00:56:58.056Z,88.72
2022-08-09T00:59:41.502Z,88.56
2022-08-09T01:02:12.416Z,88.53
2022-08-09T01:05:03.186Z,88.65
2022-08-09T01:08:00.675Z,88.71
2022-08-09T01:10:38.053Z,88.77
2022-08-09T01:13:13.479Z,88.72
2022-08-09T01:15:52.579Z,88.89
2022-08-09T01:18:29.724Z,89.14
2022-08-09T01:21:16.848Z,89.42
2022-08-09T01:24:02.075Z,89.88
2022-08-09T01:26:52.977Z,90.25
2022-08-09T01:29:28.128Z,90.24
2022-08-09T01:32:32.534Z,90.27
2022-08-09T01:34:43.050Z,90.39
2022-08-09T01:37:11.089Z,90.54
2022-08-09T01:39:40.034Z,90.57
2022-08-09T01:42:11.189Z,90.55
2022-08-09T01:44:38.378Z,90.56
2022-08-09T01:47:05.341Z,90.26
2022-08-09T01:49:39.127Z,90.19
2022-08-09T01:52:11.878Z,89.63
2022-08-09T01:54:46.530Z,89.20
2022-08-09T01:57:20.711Z,88.66
2022-08-09T01:59:51.426Z,88.25
2022-08-09T02:02:31.331Z,87.75
2022-08-09T02:05:05.145Z,87.52
2022-08-09T02:08:40.656Z,87.15
2022-08-09T02:10:29.674Z,86.71
2022-08-09T02:12:58.539Z,86.55
2022-08-09T02:15:26.998Z,86.44
2022-08-09T02:18:13.313Z,86.12
2022-08-09T02:20:42.065Z,86.03
2022-08-09T02:23:28.389Z,85.72
2022-08-09T02:26:06.492Z,85.45
2022-08-09T02:28:35.942Z,85.21
2022-08-09T02:31:12.615Z,85.06
2022-08-09T02:33:58.299Z,84.84
2022-08-09T02:36:39.451Z,84.86
2022-08-09T02:39:19.799Z,84.86
2022-08-09T02:41:53.768Z,84.91
2022-08-09T02:44:29.260Z,85.06
2022-08-09T02:46:57.915Z,85.15
2022-08-09T02:49:38.396Z,85.10
2022-08-09T02:52:06.237Z,85.13
2022-08-09T02:54:34.578Z,85.03
2022-08-09T02:57:13.583Z,85.16
2022-08-09T02:59:40.925Z,85.05
2022-08-09T03:02:28.069Z,85.17
2022-08-09T03:04:55.121Z,85.16
2022-08-09T03:07:23.655Z,85.09
2022-08-09T03:09:54.248Z,84.88
2022-08-09T03:12:23.785Z,85.03
2022-08-09T03:14:50.753Z,85.19
2022-08-09T03:17:26.462Z,85.15
2022-08-09T03:20:00.174Z,85.32
2022-08-09T03:22:31.104Z,85.31
2022-08-09T03:25:05.858Z,85.33
2022-08-09T03:27:45.044Z,85.35
2022-08-09T03:30:13.704Z,85.44
2022-08-09T03:32:41.123Z,85.51
2022-08-09T03:35:15.016Z,85.48
2022-08-09T03:37:56.051Z,85.50
2022-08-09T03:40:25.454Z,85.43
2022-08-09T03:42:57.730Z,85.54
2022-08-09T03:46:04.569Z,85.74
2022-08-09T03:48:11.211Z,85.81
2022-08-09T03:50:45.685Z,85.67
2022-08-09T03:53:15.202Z,85.65
2022-08-09T03:55:42.350Z,85.58
2022-08-09T03:58:16.472Z,85.21
2022-08-09T04:00:47.990Z,85.14
2022-08-09T04:03:19.585Z,85.17
2022-08-09T04:05:51.258Z,85.01
2022-08-09T04:08:17.989Z,84.60
2022-08-09T04:10:44.766Z,84.22
2022-08-09T04:13:18.656Z,84.01
2022-08-09T04:16:20.546Z,83.76
2022-08-09T04:18:32.661Z,83.46
2022-08-09T04:21:00.299Z,83.14
2022-08-09T04:23:27.040Z,82.77
2022-08-09T04:25:54.676Z,82.35
2022-08-09T04:28:33.846Z,82.09
2022-08-09T04:31:05.692Z,82.04
2022-08-09T04:33:47.262Z,81.98
2022-08-09T04:36:21.900Z,81.86
2022-08-09T04:38:50.203Z,81.68
2022-08-09T04:41:17.024Z,81.67
2022-08-09T04:43:46.513Z,81.39
2022-08-09T04:46:37.919Z,80.77
2022-08-09T04:49:17.997Z,79.99
2022-08-09T04:51:57.329Z,79.78
2022-08-09T04:54:24.102Z,79.48
2022-08-09T04:56:51.011Z,79.11
2022-08-09T04:59:17.715Z,78.84
2022-08-09T05:01:49.411Z,78.00
2022-08-09T05:04:16.162Z,77.88
2022-08-09T05:06:44.133Z,77.41
2022-08-09T05:09:11.108Z,77.30
2022-08-09T05:11:39.768Z,77.03
2022-08-09T05:14:10.254Z,76.68
2022-08-09T05:16:43.648Z,76.60
2022-08-09T05:19:31.767Z,76.55
2022-08-09T05:22:36.126Z,76.32
2022-08-09T05:25:02.736Z,75.79
2022-08-09T05:27:31.037Z,75.31
2022-08-09T05:29:58.031Z,75.13
2022-08-09T05:32:26.358Z,75.08
2022-08-09T05:34:56.951Z,74.79
2022-08-09T05:37:23.957Z,74.24
2022-08-09T05:39:51.938Z,74.02
2022-08-09T05:42:21.337Z,74.15
2022-08-09T05:44:52.544Z,73.19
2022-08-09T05:47:23.702Z,72.27
2022-08-09T05:50:31.021Z,71.88
2022-08-09T05:52:38.913Z,71.62
2022-08-09T05:55:08.536Z,71.46
2022-08-09T05:57:51.057Z,71.49
2022-08-09T06:00:23.341Z,71.36
2022-08-09T06:02:54.257Z,70.55
2022-08-09T06:05:30.826Z,70.11
2022-08-09T06:08:19.482Z,69.38
2022-08-09T06:10:52.177Z,69.06
2022-08-09T06:13:20.469Z,68.55
2022-08-09T06:15:51.403Z,68.46
2022-08-09T06:18:23.747Z,68.41
2022-08-09T06:20:54.697Z,68.66
2022-08-09T06:23:24.009Z,68.75
2022-08-09T06:26:10.691Z,67.92
2022-08-09T06:28:37.713Z,68.14
2022-08-09T06:31:05.182Z,67.23
2022-08-09T06:33:41.729Z,65.99
2022-08-09T06:36:11.951Z,66.17
2022-08-09T06:38:42.967Z,65.65
2022-08-09T06:41:18.702Z,65.79
2022-08-09T06:43:47.153Z,66.01
2022-08-09T06:46:39.800Z,66.25
2022-08-09T06:49:01.344Z,66.45
2022-08-09T06:51:28.317Z,66.40
2022-08-09T06:53:55.449Z,65.29
2022-08-09T06:56:31.013Z,64.20
2022-08-09T07:00:55.798Z,64.18
2022-08-09T07:01:54.610Z,64.71
2022-08-09T07:04:25.148Z,65.00
2022-08-09T07:07:00.443Z,64.65
2022-08-09T07:09:56.502Z,64.88
2022-08-09T07:12:18.690Z,64.92
2022-08-09T07:14:51.031Z,64.64
2022-08-09T07:17:21.792Z,64.44
2022-08-09T07:19:55.627Z,64.62
2022-08-09T07:22:34.928Z,64.84
2022-08-09T07:25:09.806Z,64.15
2022-08-09T07:27:42.440Z,63.46
2022-08-09T07:30:21.695Z,63.42
2022-08-09T07:32:52.071Z,63.16
2022-08-09T07:35:19.350Z,62.98
2022-08-09T07:37:47.927Z,62.79
2022-08-09T07:40:18.693Z,63.12
2022-08-09T07:42:56.070Z,63.41
2022-08-09T07:45:37.350Z,63.76
2022-08-09T07:48:06.797Z,63.28
2022-08-09T07:50:36.713Z,63.44
2022-08-09T07:53:05.253Z,63.84
2022-08-09T07:55:41.407Z,63.99
2022-08-09T07:58:21.428Z,63.38
2022-08-09T08:00:59.043Z,62.37
2022-08-09T08:03:33.418Z,60.60
2022-08-09T08:06:04.672Z,59.55
2022-08-09T08:09:01.673Z,59.20
2022-08-09T08:12:11.437Z,58.12
2022-08-09T08:14:06.354Z,57.24
2022-08-09T08:16:34.563Z,57.11
2022-08-09T08:19:03.275Z,56.82
2022-08-09T08:21:31.209Z,57.02
2022-08-09T08:24:00.871Z,58.29
2022-08-09T08:26:42.155Z,58.19
2022-08-09T08:29:20.207Z,58.03
2022-08-09T08:32:03.816Z,58.58
2022-08-09T08:34:33.731Z,58.32
2022-08-09T08:37:02.131Z,57.69
2022-08-09T08:39:28.915Z,57.89
2022-08-09T08:41:59.730Z,58.24
2022-08-09T08:44:29.681Z,57.67
2022-08-09T08:47:02.295Z,57.39
2022-08-09T08:49:38.542Z,57.81
2022-08-09T08:52:50.351Z,57.84
2022-08-09T08:55:04.047Z,57.33
2022-08-09T08:57:35.073Z,57.12
2022-08-09T09:00:08.158Z,57.25
2022-08-09T09:02:43.574Z,57.49
2022-08-09T09:05:14.126Z,57.50
2022-08-09T09:07:44.723Z,57.68
2022-08-09T09:10:11.812Z,57.59
2022-08-09T09:12:38.617Z,58.29
2022-08-09T09:15:07.255Z,57.97
2022-08-09T09:17:49.182Z,57.92
2022-08-09T09:20:21.186Z,57.70
2022-08-09T09:23:01.821Z,57.72
2022-08-09T09:26:04.238Z,56.94
2022-08-09T09:29:02.405Z,57.21
2022-08-09T09:32:05.954Z,58.19
2022-08-09T09:34:14.699Z,58.71
2022-08-09T09:36:46.668Z,59.00
2022-08-09T09:39:22.847Z,59.44
2022-08-09T09:41:50.941Z,59.30
2022-08-09T09:44:25.495Z,59.47
2022-08-09T09:47:03.715Z,59.67
2022-08-09T09:49:55.958Z,59.51
2022-08-09T09:52:36.428Z,58.48
2022-08-09T09:55:24.161Z,58.13
2022-08-09T09:58:18.605Z,58.04
2022-08-09T10:00:54.171Z,58.38
2022-08-09T10:03:38.680Z,58.22
2022-08-09T10:06:06.722Z,58.00
2022-08-09T10:08:42.713Z,57.55
2022-08-09T10:12:12.353Z,57.16
2022-08-09T10:14:33.665Z,57.05
2022-08-09T10:17:50.101Z,56.74
2022-08-09T10:20:05.506Z,56.41
2022-08-09T10:22:39.119Z,56.19
2022-08-09T10:25:11.806Z,56.33
2022-08-09T10:27:55.955Z,56.37
2022-08-09T10:34:05.150Z,55.88
2022-08-09T10:36:01.295Z,55.76
2022-08-09T10:38:54.363Z,55.90
2022-08-09T10:41:17.767Z,55.63
2022-08-09T10:43:50.718Z,55.40
2022-08-09T10:46:32.901Z,54.74
2022-08-09T10:49:21.547Z,54.34
2022-08-09T10:52:13.560Z,54.32
2022-08-09T10:54:49.959Z,54.39
2022-08-09T10:57:19.985Z,54.02
2022-08-09T10:59:57.338Z,53.80
2022-08-09T11:03:10.857Z,53.49
2022-08-09T11:06:15.933Z,52.91
2022-08-09T11:08:47.417Z,52.44
2022-08-09T11:11:16.771Z,51.42
2022-08-09T11:13:50.001Z,50.67
2022-08-09T11:16:35.673Z,50.80
2022-08-09T11:19:09.432Z,50.30
2022-08-09T11:21:57.500Z,49.52
2022-08-09T11:25:11.603Z,49.39
2022-08-09T11:28:03.789Z,49.93
2022-08-09T11:30:33.843Z,49.41
2022-08-09T11:33:11.539Z,49.46
2022-08-09T11:35:50.092Z,49.52
2022-08-09T11:38:28.694Z,49.91
2022-08-09T11:41:13.638Z,50.44
2022-08-09T11:43:43.107Z,50.94
2022-08-09T11:46:10.213Z,50.95
2022-08-09T11:48:51.408Z,51.24
2022-08-09T11:53:02.905Z,51.08
2022-08-09T11:54:13.906Z,50.99
2022-08-09T11:56:42.653Z,50.36
2022-08-09T11:59:30.356Z,50.18
2022-08-09T12:02:34.389Z,50.41
2022-08-09T12:04:47.066Z,50.30
2022-08-09T12:07:14.253Z,50.91
2022-08-09T12:09:50.553Z,51.32
2022-08-09T12:12:20.276Z,52.18
2022-08-09T12:15:07.552Z,52.50
2022-08-09T12:17:43.320Z,53.23
2022-08-09T12:20:30.940Z,53.00
2022-08-09T12:22:59.648Z,53.16
2022-08-09T12:25:36.037Z,53.02
2022-08-09T12:29:12.575Z,53.06
2022-08-09T12:31:10.927Z,52.74
2022-08-09T12:33:59.356Z,53.16
2022-08-09T12:36:33.435Z,53.45
2022-08-09T12:39:00.953Z,52.92
2022-08-09T12:41:38.076Z,52.66
2022-08-09T12:44:09.853Z,52.44
2022-08-09T12:46:48.981Z,52.45
2022-08-09T12:49:16.977Z,52.59
2022-08-09T12:52:02.493Z,52.35
2022-08-09T12:55:03.289Z,52.38
2022-08-09T12:57:41.885Z,52.51
2022-08-09T13:00:25.218Z,52.50
2022-08-09T13:02:54.212Z,52.56
2022-08-09T13:05:22.425Z,52.41
2022-08-09T13:08:21.156Z,52.49
2022-08-09T13:11:22.927Z,52.56
2022-08-09T13:14:36.953Z,52.44
2022-08-09T13:16:44.841Z,51.92
2022-08-09T13:19:23.627Z,52.12
2022-08-09T13:22:36.662Z,52.26
2022-08-09T13:25:04.534Z,52.47
2022-08-09T13:27:39.861Z,52.33
2022-08-09T13:30:50.556Z,52.26
2022-08-09T13:33:12.044Z,52.13
2022-08-09T13:36:24.698Z,51.83
2022-08-09T13:38:57.661Z,52.02
2022-08-09T13:41:55.086Z,52.34
2022-08-09T13:44:08.552Z,52.22
2022-08-09T13:47:15.873Z,52.57
2022-08-09T13:49:37.484Z,52.98
2022-08-09T13:52:05.557Z,53.06
2022-08-09T13:54:36.584Z,52.92
2022-08-09T13:57:35.151Z,52.66
2022-08-09T13:59:58.077Z,52.49
2022-08-09T14:02:26.033Z,52.59
2022-08-09T14:04:59.313Z,52.52
2022-08-09T14:07:26.616Z,52.85
2022-08-09T14:10:08.150Z,53.22
2022-08-09T14:12:44.439Z,53.32
2022-08-09T14:16:07.163Z,52.97
2022-08-09T14:18:16.738Z,52.76
2022-08-09T14:20:44.960Z,52.76
2022-08-09T14:23:20.291Z,52.70
2022-08-09T14:26:05.867Z,52.78
2022-08-09T14:28:33.428Z,53.00
2022-08-09T14:31:00.184Z,53.10
2022-08-09T14:33:27.685Z,53.26
2022-08-09T14:35:55.956Z,53.63
2022-08-09T14:38:22.756Z,53.71
2022-08-09T14:41:01.132Z,53.96
2022-08-09T14:43:47.223Z,54.02
2022-08-09T14:47:00.906Z,54.27
2022-08-09T14:49:02.090Z,54.44
2022-08-09T14:51:28.842Z,54.40
2022-08-09T14:53:57.064Z,54.76
2022-08-09T14:56:26.902Z,55.06
2022-08-09T14:58:56.166Z,54.93
2022-08-09T15:01:24.781Z,55.22
2022-08-09T15:03:52.628Z,55.17
2022-08-09T15:06:21.114Z,55.07
2022-08-09T15:08:56.307Z,55.34
2022-08-09T15:11:26.375Z,54.87
2022-08-09T15:14:01.621Z,54.38
2022-08-09T15:16:31.679Z,54.58
2022-08-09T15:18:59.810Z,54.97
2022-08-09T15:21:58.159Z,54.78
2022-08-09T15:24:24.207Z,54.93
2022-08-09T15:26:53.988Z,54.68
2022-08-09T15:30:55.328Z,54.65
2022-08-09T15:32:29.515Z,54.29
2022-08-09T15:34:54.663Z,54.16
2022-08-09T15:37:36.962Z,54.19
2022-08-09T15:40:05.485Z,54.10
2022-08-09T15:42:39.379Z,53.95
2022-08-09T15:45:06.851Z,54.11
2022-08-09T15:47:51.565Z,54.18
2022-08-09T15:50:19.553Z,54.40
2022-08-09T15:52:54.998Z,54.37
2022-08-09T15:55:54.045Z,54.76
2022-08-09T15:58:24.066Z,54.65
2022-08-09T16:00:54.095Z,54.70
2022-08-09T16:03:29.465Z,54.44
2022-08-09T16:06:06.554Z,54.54
2022-08-09T16:08:33.562Z,54.50
2022-08-09T16:11:01.490Z,54.06
2022-08-09T16:14:03.451Z,53.62
2022-08-09T16:16:18.818Z,53.59
2022-08-09T16:18:47.109Z,53.65
2022-08-09T16:21:16.921Z,53.70
2022-08-09T16:23:54.927Z,53.11
2022-08-09T16:26:33.666Z,52.90
2022-08-09T16:29:11.789Z,53.07
2022-08-09T16:32:20.316Z,52.40
2022-08-09T16:34:56.471Z,52.04
2022-08-09T16:37:17.339Z,51.78
2022-08-09T16:40:02.551Z,52.07
2022-08-09T16:42:30.973Z,52.59
2022-08-09T16:44:57.725Z,52.84
2022-08-09T16:48:42.194Z,53.17
2022-08-09T16:50:29.341Z,54.56
2022-08-09T16:52:59.534Z,55.83
2022-08-09T16:55:26.626Z,56.75
2022-08-09T16:58:08.520Z,57.33
2022-08-09T17:00:36.885Z,57.92
2022-08-09T17:03:08.950Z,58.45
2022-08-09T17:06:06.532Z,58.99
2022-08-09T17:08:46.437Z,59.45
2022-08-09T17:11:40.292Z,59.81
2022-08-09T17:14:25.358Z,60.16
2022-08-09T17:16:59.808Z,60.63
2022-08-09T17:20:05.162Z,60.88
2022-08-09T17:22:31.500Z,61.07
2022-08-09T17:25:03.425Z,61.42
2022-08-09T17:27:38.219Z,61.60
2022-08-09T17:30:06.876Z,61.63
2022-08-09T17:32:39.766Z,62.06
2022-08-09T17:35:12.864Z,62.38
2022-08-09T17:38:12.643Z,62.50
2022-08-09T17:40:35.779Z,62.75
2022-08-09T17:43:32.747Z,62.79
2022-08-09T17:46:02.891Z,62.92
2022-08-09T17:48:31.390Z,62.95
2022-08-09T17:51:06.587Z,63.09
2022-08-09T17:53:43.008Z,63.17
2022-08-09T17:56:10.905Z,63.54
2022-08-09T17:58:37.702Z,63.39
2022-08-09T18:01:09.766Z,63.42
2022-08-09T18:03:49.354Z,63.30
2022-08-09T18:06:31.679Z,63.28
2022-08-09T18:09:01.789Z,63.34
2022-08-09T18:11:32.190Z,63.26
2022-08-09T18:14:20.053Z,64.53
2022-08-09T18:16:49.356Z,65.49
2022-08-09T18:20:56.206Z,65.75
2022-08-09T18:22:03.857Z,65.06
2022-08-09T18:24:31.120Z,64.64
2022-08-09T18:26:58.115Z,64.40
2022-08-09T18:30:38.122Z,64.33
2022-08-09T18:32:19.019Z,63.92
2022-08-09T18:34:46.143Z,63.88
2022-08-09T18:37:48.611Z,63.94
2022-08-09T18:40:02.326Z,64.02
2022-08-09T18:42:29.775Z,64.12
2022-08-09T18:45:00.647Z,64.22
2022-08-09T18:47:34.880Z,64.51
2022-08-09T18:50:09.004Z,64.74
2022-08-09T18:52:37.367Z,65.00
2022-08-09T18:55:06.406Z,65.29
2022-08-09T18:57:43.562Z,65.57
2022-08-09T19:00:16.705Z,65.76
2022-08-09T19:02:53.967Z,65.47
2022-08-09T19:05:48.797Z,65.18
2022-08-09T19:08:10.627Z,65.06
2022-08-09T19:10:40.858Z,65.26
2022-08-09T19:13:22.351Z,65.29
2022-08-09T19:15:56.512Z,65.21
2022-08-09T19:18:33.309Z,65.15
2022-08-09T19:21:09.408Z,65.22
2022-08-09T19:24:32.072Z,65.30
2022-08-09T19:26:31.229Z,64.84
2022-08-09T19:29:03.313Z,64.54
2022-08-09T19:31:45.078Z,64.35
2022-08-09T19:34:21.817Z,64.48
2022-08-09T19:36:54.062Z,64.31
2022-08-09T19:39:42.885Z,63.78
2022-08-09T19:42:08.755Z,63.45
2022-08-09T19:44:36.851Z,63.19
2022-08-09T19:47:04.050Z,62.80
2022-08-09T19:50:05.109Z,62.69
2022-08-09T19:52:18.274Z,62.45
2022-08-09T19:54:45.345Z,62.33
2022-08-09T19:57:15.134Z,62.18
2022-08-09T19:59:59.104Z,62.13
2022-08-09T20:04:07.340Z,61.95
2022-08-09T20:05:23.627Z,61.87
2022-08-09T20:07:58.647Z,61.87
2022-08-09T20:10:34.517Z,61.86
2022-08-09T20:13:05.094Z,61.82
2022-08-09T20:16:34.502Z,61.67
2022-08-09T20:18:20.219Z,61.69
2022-08-09T20:20:51.328Z,61.54
2022-08-09T20:23:23.095Z,61.64
2022-08-09T20:25:52.297Z,61.53
2022-08-09T20:28:28.102Z,61.55
2022-08-09T20:31:05.235Z,61.53
2022-08-09T20:33:38.921Z,61.64
2022-08-09T20:36:08.946Z,61.62
2022-08-09T20:41:31.990Z,62.15
2022-08-09T20:44:02.389Z,62.55
2022-08-09T20:46:41.914Z,62.83
2022-08-09T20:49:12.917Z,63.28
2022-08-09T20:51:41.621Z,63.66
2022-08-09T20:54:12.440Z,64.42
2022-08-09T20:56:49.882Z,64.58
2022-08-09T20:59:24.990Z,64.52
2022-08-09T21:02:10.907Z,65.08
2022-08-09T21:05:52.071Z,65.32
2022-08-09T21:07:38.886Z,65.46
2022-08-09T21:10:08.409Z,65.70
2022-08-09T21:12:36.795Z,65.84
2022-08-09T21:15:03.946Z,65.74
2022-08-09T21:18:23.296Z,66.19
2022-08-09T21:20:25.916Z,66.54
2022-08-09T21:22:54.454Z,66.40
2022-08-09T21:55:46.410Z,67.35
2022-08-09T21:58:13.570Z,67.10
2022-08-09T22:00:40.968Z,67.29
2022-08-09T22:03:19.488Z,67.17
2022-08-09T22:05:52.757Z,67.17
2022-08-09T22:08:24.597Z,67.15
2022-08-09T22:11:49.056Z,67.29
2022-08-09T22:13:38.689Z,67.23
2022-08-09T22:16:09.568Z,67.26
2022-08-09T22:18:52.795Z,67.36
2022-08-09T22:21:27.363Z,67.74
2022-08-09T22:24:16.540Z,67.71
2022-08-09T22:26:51.104Z,67.79
2022-08-09T22:29:19.123Z,67.95
2022-08-09T22:31:56.548Z,67.94
2022-08-09T22:34:27.711Z,68.25
2022-08-09T22:36:55.431Z,68.48
2022-08-09T22:39:55.678Z,68.64
2022-08-09T22:42:21.070Z,68.85
2022-08-09T22:45:00.599Z,68.93
2022-08-09T22:48:12.248Z,69.05
2022-08-09T22:50:28.006Z,69.16
2022-08-09T22:52:57.873Z,69.23
2022-08-09T22:55:39.352Z,69.33
2022-08-09T22:58:20.329Z,69.46
2022-08-09T23:00:59.950Z,69.47
2022-08-09T23:04:02.420Z,69.68
2022-08-09T23:06:14.141Z,69.91
2022-08-09T23:08:44.143Z,70.01
2022-08-09T23:11:15.566Z,70.17
2022-08-09T23:13:54.798Z,70.35
2022-08-09T23:16:22.405Z,70.43
2022-08-09T23:18:49.329Z,70.52
2022-08-09T23:21:25.307Z,70.55
2022-08-09T23:23:58.895Z,70.71
2022-08-09T23:26:37.110Z,70.76
2022-08-09T23:29:08.184Z,70.90
2022-08-09T23:31:34.959Z,71.05
2022-08-09T23:34:02.625Z,71.04
2022-08-09T23:36:30.767Z,71.22
2022-08-09T23:38:57.551Z,71.21
2022-08-09T23:41:27.659Z,71.53
2022-08-09T23:43:57.804Z,71.41
2022-08-09T23:46:24.602Z,71.40
2022-08-09T23:48:51.364Z,71.28
2022-08-09T23:51:18.102Z,71.42
2022-08-09T23:53:44.836Z,71.45
2022-08-09T23:56:14.028Z,71.41
2022-08-09T23:58:41.356Z,71.18
